createdAt,value
2022-12-08T00:00:39.705Z,21.88
2022-12-08T00:03:06.523Z,16.45
2022-12-08T00:11:23.368Z,17.90
2022-12-08T00:13:50.004Z,16.38
2022-12-08T00:16:16.817Z,24.27
2022-12-08T00:18:43.443Z,16.20
2022-12-08T00:21:10.243Z,17.35
2022-12-08T00:26:12.442Z,14.93
2022-12-08T00:28:39.119Z,19.45
2022-12-08T00:31:10.626Z,34.28
2022-12-08T00:33:38.640Z,17.45
2022-12-08T00:36:10.236Z,19.95
2022-12-08T00:41:17.836Z,13.98
2022-12-08T00:43:44.732Z,16.65
2022-12-08T00:46:12.209Z,18.27
2022-12-08T00:48:39.223Z,14.48
2022-12-08T00:51:07.056Z,18.30
2022-12-08T00:56:14.075Z,14.52
2022-12-08T00:58:40.775Z,15.00
2022-12-08T01:01:11.725Z,14.52
2022-12-08T01:03:38.449Z,16.50
2022-12-08T01:06:06.850Z,13.63
2022-12-08T01:08:40.788Z,14.60
2022-12-08T01:11:10.201Z,14.55
2022-12-08T01:13:37.392Z,15.40
2022-12-08T01:16:04.332Z,15.60
2022-12-08T01:18:32.442Z,14.98
2022-12-08T01:21:06.877Z,17.45
2022-12-08T01:26:05.676Z,14.15
2022-12-08T01:28:33.068Z,12.00
2022-12-08T01:31:01.745Z,10.10
2022-12-08T01:33:28.872Z,11.98
2022-12-08T01:35:55.564Z,13.48
2022-12-08T01:46:24.263Z,11.75
2022-12-08T01:48:54.085Z,14.20
2022-12-08T01:51:22.271Z,11.57
2022-12-08T01:53:49.966Z,11.25
2022-12-08T01:58:56.948Z,11.02
2022-12-08T02:01:23.821Z,9.23
2022-12-08T02:04:00.878Z,14.15
2022-12-08T02:06:29.553Z,12.98
2022-12-08T02:08:56.994Z,11.73
2022-12-08T02:37:55.014Z,11.27
2022-12-08T02:40:28.264Z,10.00
2022-12-08T02:43:02.286Z,13.52
2022-12-08T02:45:39.785Z,9.32
2022-12-08T02:48:06.681Z,11.88
2022-12-08T02:50:33.381Z,11.30
2022-12-08T03:03:47.582Z,8.13
2022-12-08T03:06:35.627Z,9.30
2022-12-08T03:09:16.691Z,9.70
2022-12-08T03:11:48.859Z,10.38
2022-12-08T03:14:17.863Z,9.52
2022-12-08T03:16:47.222Z,10.23
2022-12-08T03:19:20.124Z,7.72
2022-12-08T03:22:02.782Z,6.55
2022-12-08T03:24:36.687Z,8.32
2022-12-08T03:27:11.350Z,7.85
2022-12-08T03:29:38.225Z,7.38
2022-12-08T03:37:31.078Z,9.23
2022-12-08T03:39:59.407Z,8.32
2022-12-08T03:42:26.100Z,8.27
2022-12-08T03:44:52.774Z,6.82
2022-12-08T03:47:25.684Z,6.75
2022-12-08T03:52:27.940Z,9.20
2022-12-08T03:54:54.508Z,8.38
2022-12-08T03:57:21.770Z,7.80
2022-12-08T03:59:48.380Z,8.68
2022-12-08T04:02:16.425Z,6.45
2022-12-08T04:12:50.287Z,7.65
2022-12-08T04:15:16.986Z,11.90
2022-12-08T04:17:43.734Z,7.38
2022-12-08T04:20:10.976Z,6.68
2022-12-08T04:31:04.663Z,10.07
2022-12-08T04:33:31.821Z,9.10
2022-12-08T04:35:58.549Z,8.70
2022-12-08T04:38:25.213Z,8.63
2022-12-08T04:43:26.935Z,9.10
2022-12-08T04:45:53.575Z,9.85
2022-12-08T04:48:20.251Z,10.30
2022-12-08T04:50:46.979Z,12.82
2022-12-08T04:53:14.249Z,10.90
2022-12-08T04:58:17.586Z,7.55
2022-12-08T05:00:44.902Z,6.75
2022-12-08T05:03:11.845Z,8.18
2022-12-08T05:05:38.945Z,10.65
2022-12-08T05:08:05.982Z,9.77
2022-12-08T05:18:44.887Z,16.88
2022-12-08T05:21:11.873Z,12.18
2022-12-08T05:23:38.558Z,16.42
2022-12-08T05:26:05.353Z,13.00
2022-12-08T05:31:13.230Z,13.10
2022-12-08T05:33:40.356Z,13.77
2022-12-08T05:36:07.560Z,15.15
2022-12-08T05:38:34.232Z,21.70
2022-12-08T05:41:00.851Z,14.15
2022-12-08T05:46:03.343Z,21.38
2022-12-08T05:48:30.014Z,18.70
2022-12-08T05:50:57.104Z,17.30
2022-12-08T05:53:23.845Z,20.02
2022-12-08T05:55:50.635Z,14.52
2022-12-08T06:01:05.104Z,20.30
2022-12-08T06:03:31.924Z,15.93
2022-12-08T06:05:58.737Z,18.77
2022-12-08T06:08:26.721Z,14.82
2022-12-08T06:10:55.711Z,21.27
2022-12-08T06:18:32.827Z,19.63
2022-12-08T06:21:08.773Z,16.63
2022-12-08T06:23:37.570Z,15.48
2022-12-08T06:26:06.688Z,20.20
2022-12-08T06:28:35.281Z,23.67
2022-12-08T06:33:49.031Z,20.23
2022-12-08T06:36:18.126Z,19.85
2022-12-08T06:38:45.174Z,18.48
2022-12-08T06:41:12.429Z,19.45
2022-12-08T06:43:39.653Z,21.77
2022-12-08T06:46:12.220Z,18.40
2022-12-08T06:48:39.082Z,21.35
2022-12-08T06:51:10.790Z,20.55
2022-12-08T06:53:38.261Z,17.35
2022-12-08T06:58:52.697Z,20.83
2022-12-08T07:01:19.659Z,19.40
2022-12-08T07:03:47.284Z,17.67
2022-12-08T07:06:18.356Z,20.88
2022-12-08T07:08:44.958Z,17.65
2022-12-08T07:11:15.270Z,18.55
2022-12-08T07:13:44.889Z,19.42
2022-12-08T07:16:12.311Z,15.93
2022-12-08T07:18:39.640Z,16.75
2022-12-08T07:21:08.363Z,19.50
2022-12-08T07:23:35.536Z,14.65
2022-12-08T07:26:07.689Z,17.13
2022-12-08T07:28:36.362Z,15.68
2022-12-08T07:31:13.448Z,14.98
2022-12-08T07:33:42.028Z,14.93
2022-12-08T07:36:09.319Z,17.95
2022-12-08T07:38:36.428Z,14.95
2022-12-08T07:41:04.493Z,12.82
2022-12-08T07:43:31.246Z,12.60
2022-12-08T07:48:42.101Z,14.75
2022-12-08T07:51:09.305Z,12.32
2022-12-08T07:53:36.028Z,14.18
2022-12-08T07:56:06.763Z,12.75
2022-12-08T08:03:33.429Z,13.05
2022-12-08T08:06:04.317Z,14.10
2022-12-08T08:08:31.671Z,14.30
2022-12-08T08:10:58.766Z,13.30
2022-12-08T08:13:25.639Z,15.50
2022-12-08T08:16:01.838Z,10.15
2022-12-08T08:18:34.902Z,12.73
2022-12-08T08:21:15.778Z,11.52
2022-12-08T08:23:48.769Z,11.07
2022-12-08T08:26:16.398Z,11.60
2022-12-08T08:28:45.537Z,14.30
2022-12-08T08:31:13.254Z,14.02
2022-12-08T08:33:40.026Z,12.52
2022-12-08T08:36:08.251Z,12.90
2022-12-08T08:38:36.590Z,12.30
2022-12-08T08:41:09.367Z,11.02
2022-12-08T08:43:38.535Z,12.85
2022-12-08T08:46:06.638Z,11.88
2022-12-08T08:48:33.892Z,12.48
2022-12-08T08:51:07.798Z,14.32
2022-12-08T08:53:34.507Z,12.50
2022-12-08T08:56:02.850Z,12.88
2022-12-08T08:58:29.895Z,12.80
2022-12-08T09:03:26.951Z,15.88
2022-12-08T09:05:55.841Z,10.77
2022-12-08T09:08:23.549Z,13.15
2022-12-08T09:10:50.484Z,13.07
2022-12-08T09:13:17.156Z,20.65
2022-12-08T09:18:18.335Z,19.25
2022-12-08T09:20:45.268Z,13.25
2022-12-08T09:23:11.939Z,13.80
2022-12-08T09:25:39.621Z,14.75
2022-12-08T09:28:06.315Z,10.10
2022-12-08T09:33:15.695Z,14.43
2022-12-08T09:35:42.402Z,17.02
2022-12-08T09:38:09.180Z,14.35
2022-12-08T09:40:50.777Z,11.48
2022-12-08T09:43:17.339Z,13.00
2022-12-08T09:45:47.320Z,12.52
2022-12-08T09:48:17.856Z,10.73
2022-12-08T09:50:50.393Z,13.68
2022-12-08T09:53:32.045Z,14.65
2022-12-08T09:56:09.353Z,9.50
2022-12-08T09:58:51.832Z,15.02
2022-12-08T10:01:20.309Z,12.85
2022-12-08T10:03:47.872Z,11.13
2022-12-08T10:17:11.778Z,12.98
2022-12-08T10:19:41.133Z,8.75
2022-12-08T10:22:25.644Z,13.77
2022-12-08T10:25:02.539Z,19.38
2022-12-08T10:30:13.126Z,7.10
2022-12-08T10:32:41.374Z,8.13
2022-12-08T10:35:13.737Z,16.55
2022-12-08T10:42:59.780Z,10.65
2022-12-08T10:51:00.713Z,7.95
2022-12-08T10:53:30.548Z,8.60
2022-12-08T10:56:03.958Z,11.25
2022-12-08T10:58:34.115Z,8.52
2022-12-08T11:01:11.484Z,9.98
2022-12-08T11:03:59.924Z,11.18
2022-12-08T11:09:00.672Z,12.32
2022-12-08T11:11:58.752Z,11.50
2022-12-08T11:14:29.673Z,9.73
2022-12-08T11:17:04.319Z,12.02
2022-12-08T11:19:31.260Z,10.15
2022-12-08T11:21:58.458Z,12.05
2022-12-08T11:24:32.259Z,12.38
2022-12-08T11:27:10.818Z,9.18
2022-12-08T11:29:45.940Z,12.02
2022-12-08T11:32:13.522Z,13.45
2022-12-08T11:34:48.878Z,9.52
2022-12-08T11:37:22.776Z,18.23
2022-12-08T11:39:52.097Z,12.77
2022-12-08T11:42:21.969Z,9.48
2022-12-08T11:44:57.455Z,10.60
2022-12-08T11:47:25.853Z,8.95
2022-12-08T11:50:05.313Z,13.65
2022-12-08T11:52:46.184Z,11.70
2022-12-08T11:57:48.974Z,10.38
2022-12-08T12:00:16.784Z,13.25
2022-12-08T12:02:49.831Z,9.93
2022-12-08T12:17:45.841Z,9.32
2022-12-08T12:20:35.099Z,7.45
2022-12-08T12:26:03.729Z,10.90
2022-12-08T12:28:46.330Z,9.75
2022-12-08T12:31:16.827Z,9.18
2022-12-08T12:33:44.635Z,10.77
2022-12-08T12:39:07.257Z,13.73
2022-12-08T12:41:44.200Z,8.73
2022-12-08T12:44:13.905Z,8.93
2022-12-08T12:46:41.002Z,13.13
2022-12-08T12:49:48.794Z,10.45
2022-12-08T12:52:15.536Z,9.48
2022-12-08T12:54:48.016Z,9.57
2022-12-08T12:57:14.814Z,11.38
2022-12-08T13:05:33.382Z,7.07
2022-12-08T13:08:08.086Z,7.13
2022-12-08T13:10:41.122Z,9.45
2022-12-08T13:13:12.194Z,10.70
2022-12-08T13:15:56.328Z,7.00
2022-12-08T13:18:29.610Z,9.30
2022-12-08T13:21:02.123Z,7.80
2022-12-08T13:34:36.390Z,5.07
2022-12-08T13:37:20.921Z,3.65
2022-12-08T13:39:56.566Z,5.00
2022-12-08T13:43:13.284Z,4.22
2022-12-08T13:46:34.666Z,4.97
2022-12-08T13:57:36.153Z,7.78
2022-12-08T14:00:15.608Z,7.25
2022-12-08T14:17:24.994Z,8.88
2022-12-08T14:19:58.670Z,7.43
2022-12-08T14:24:58.357Z,8.77
2022-12-08T14:27:26.545Z,8.30
2022-12-08T14:30:07.692Z,5.40
2022-12-08T14:38:19.570Z,5.82
2022-12-08T14:41:01.088Z,7.10
2022-12-08T14:43:28.908Z,4.63
2022-12-08T14:46:05.043Z,7.80
2022-12-08T14:48:33.423Z,5.32
2022-12-08T14:51:18.985Z,5.03
2022-12-08T14:54:06.033Z,5.00
2022-12-08T14:56:39.009Z,4.28
2022-12-08T15:05:11.163Z,6.85
2022-12-08T15:07:50.626Z,5.78
2022-12-08T15:10:17.324Z,8.70
2022-12-08T15:13:04.851Z,6.82
2022-12-08T15:15:32.801Z,10.10
2022-12-08T15:18:13.495Z,5.22
2022-12-08T15:26:04.772Z,5.40
2022-12-08T15:28:31.438Z,7.63
2022-12-08T15:30:58.637Z,7.05
2022-12-08T15:33:25.851Z,10.05
2022-12-08T15:35:53.244Z,9.18
2022-12-08T15:41:50.703Z,5.97
2022-12-08T15:47:33.132Z,6.13
2022-12-08T15:49:59.886Z,7.70
2022-12-08T15:52:26.686Z,6.25
2022-12-08T15:54:54.786Z,6.13
2022-12-08T15:58:04.550Z,5.07
2022-12-08T16:04:09.360Z,5.43
2022-12-08T16:07:04.769Z,4.15
2022-12-08T16:09:18.163Z,5.75
2022-12-08T16:12:07.702Z,7.75
2022-12-08T16:17:22.976Z,4.70
2022-12-08T16:19:49.728Z,5.15
2022-12-08T16:25:18.342Z,6.28
2022-12-08T16:30:37.658Z,4.22
2022-12-08T16:33:04.716Z,11.75
2022-12-08T16:35:37.990Z,5.40
2022-12-08T16:43:43.380Z,5.30
2022-12-08T16:46:18.366Z,3.15
2022-12-08T16:48:45.883Z,3.83
2022-12-08T16:51:25.121Z,8.73
2022-12-08T16:53:55.324Z,3.38
2022-12-08T16:56:28.995Z,3.38
2022-12-08T17:07:06.847Z,5.38
2022-12-08T17:09:33.662Z,4.68
2022-12-08T17:12:04.130Z,5.13
2022-12-08T17:19:44.591Z,5.82
2022-12-08T17:22:12.368Z,11.65
2022-12-08T17:24:40.176Z,8.48
2022-12-08T17:27:06.972Z,5.60
2022-12-08T17:29:34.808Z,7.28
2022-12-08T17:34:36.622Z,7.28
2022-12-08T17:37:03.650Z,8.10
2022-12-08T17:39:30.610Z,7.90
2022-12-08T17:41:57.614Z,6.82
2022-12-08T17:44:24.543Z,6.57
2022-12-08T17:49:28.166Z,7.95
2022-12-08T17:51:57.042Z,8.25
2022-12-08T17:54:23.852Z,9.00
2022-12-08T17:56:51.052Z,6.45
2022-12-08T17:59:17.775Z,9.82
2022-12-08T18:07:30.857Z,10.20
2022-12-08T18:09:57.958Z,9.73
2022-12-08T18:12:24.882Z,7.82
2022-12-08T18:14:52.903Z,8.85
2022-12-08T18:17:20.935Z,8.25
2022-12-08T18:25:22.266Z,11.77
2022-12-08T18:27:50.432Z,9.38
2022-12-08T18:30:18.060Z,8.05
2022-12-08T18:32:45.151Z,11.50
2022-12-08T18:35:14.252Z,9.57
2022-12-08T18:40:18.424Z,10.13
2022-12-08T18:42:45.400Z,10.25
2022-12-08T18:45:12.487Z,10.45
2022-12-08T18:47:40.207Z,9.60
2022-12-08T18:50:08.682Z,13.98
2022-12-08T18:52:46.839Z,11.50
2022-12-08T18:55:14.221Z,9.40
2022-12-08T18:57:43.243Z,13.60
2022-12-08T19:00:13.486Z,7.53
2022-12-08T19:02:40.691Z,9.38
2022-12-08T19:05:08.725Z,9.18
2022-12-08T19:13:15.644Z,10.40
2022-12-08T19:15:42.482Z,13.18
2022-12-08T19:18:09.694Z,12.00
2022-12-08T19:20:37.390Z,15.05
2022-12-08T19:23:04.146Z,11.88
2022-12-08T19:33:33.905Z,9.55
2022-12-08T19:36:08.578Z,10.68
2022-12-08T19:38:55.468Z,14.50
2022-12-08T19:41:41.486Z,11.25
2022-12-08T19:44:27.322Z,11.20
2022-12-08T19:46:54.498Z,8.48
2022-12-08T19:52:04.203Z,12.93
2022-12-08T19:54:31.022Z,10.10
2022-12-08T19:56:58.175Z,10.82
2022-12-08T19:59:30.390Z,16.02
2022-12-08T20:02:00.406Z,11.60
2022-12-08T20:09:59.776Z,14.32
2022-12-08T20:12:27.800Z,11.75
2022-12-08T20:14:54.576Z,10.68
2022-12-08T20:17:21.561Z,10.48
2022-12-08T20:19:48.340Z,11.18
2022-12-08T20:22:15.177Z,15.15
2022-12-08T20:24:42.540Z,11.45
2022-12-08T20:27:10.322Z,15.20
2022-12-08T20:29:37.316Z,13.93
2022-12-08T20:32:04.485Z,17.58
2022-12-08T20:34:31.702Z,13.60
2022-12-08T20:36:58.285Z,16.35
2022-12-08T20:39:25.076Z,16.40
2022-12-08T20:41:54.436Z,14.98
2022-12-08T20:44:21.719Z,17.65
2022-12-08T20:46:49.749Z,12.77
2022-12-08T20:49:16.769Z,13.65
2022-12-08T20:51:44.431Z,13.70
2022-12-08T20:54:11.545Z,11.10
2022-12-08T20:56:43.361Z,13.82
2022-12-08T20:59:17.889Z,13.35
2022-12-08T21:01:45.589Z,10.50
2022-12-08T21:04:13.566Z,11.75
2022-12-08T21:06:40.625Z,12.55
2022-12-08T21:09:07.748Z,12.13
2022-12-08T21:11:35.823Z,15.23
2022-12-08T21:14:03.898Z,12.10
2022-12-08T21:16:31.090Z,12.23
2022-12-08T21:21:39.988Z,14.23
2022-12-08T21:24:07.280Z,13.20
2022-12-08T21:26:34.516Z,10.65
2022-12-08T21:29:01.728Z,10.00
2022-12-08T21:31:31.913Z,14.25
2022-12-08T21:36:38.830Z,13.35
2022-12-08T21:39:11.259Z,13.23
2022-12-08T21:41:56.972Z,11.88
2022-12-08T21:44:24.107Z,14.00
2022-12-08T21:46:51.255Z,14.00
2022-12-08T21:49:19.500Z,13.73
2022-12-08T21:51:46.600Z,11.38
2022-12-08T21:54:18.609Z,11.13
2022-12-08T21:56:46.014Z,13.80
2022-12-08T21:59:12.920Z,16.60
2022-12-08T22:01:40.188Z,14.48
2022-12-08T22:06:37.902Z,14.20
2022-12-08T22:09:05.111Z,18.98
2022-12-08T22:11:32.268Z,17.58
2022-12-08T22:14:00.359Z,13.65
2022-12-08T22:16:27.407Z,16.65
2022-12-08T22:21:35.610Z,14.73
2022-12-08T22:24:02.285Z,13.95
2022-12-08T22:26:29.109Z,15.00
2022-12-08T22:28:55.866Z,9.93
2022-12-08T22:31:22.741Z,12.30
2022-12-08T22:36:29.896Z,14.98
2022-12-08T22:38:56.757Z,12.63
2022-12-08T22:41:23.883Z,11.48
2022-12-08T22:43:51.278Z,11.27
2022-12-08T22:46:20.653Z,9.75
2022-12-08T22:51:28.995Z,11.50
2022-12-08T22:53:56.062Z,11.35
2022-12-08T22:56:23.042Z,11.25
2022-12-08T22:58:49.857Z,10.15
2022-12-08T23:01:30.709Z,16.73
2022-12-08T23:04:01.627Z,13.55
2022-12-08T23:06:30.320Z,12.98
2022-12-08T23:08:57.549Z,12.57
2022-12-08T23:11:29.435Z,11.35
2022-12-08T23:13:59.840Z,12.10
2022-12-08T23:16:27.150Z,13.30
2022-12-08T23:24:15.896Z,17.27
2022-12-08T23:26:43.541Z,14.45
2022-12-08T23:29:10.913Z,16.38
2022-12-08T23:31:38.548Z,18.02
2022-12-08T23:34:05.518Z,18.77
2022-12-08T23:47:35.766Z,16.65
2022-12-08T23:50:02.906Z,15.98
2022-12-08T23:52:29.654Z,17.40
